Time;durP1;ratioP1;P1;durP2;ratioP2;P2;SDS_P1;SDS_P2;PMS_P1;PMS_P2;Temp;Humidity;BMP_temperature;BMP_pressure;BME280_temperature;BME280_humidity;BME280_pressure;Samples;Min_cycle;Max_cycle;Signal;HPM_P1;HPM_P2
2024/04/16 00:00:37;;;;;;;1.47;0.90;;;;;;;;;;5383781;26;79506;-53
2024/04/16 00:03:02;;;;;;;3.97;0.82;;;;;;;;;;5385190;26;80580;-55
2024/04/16 00:05:27;;;;;;;0.90;0.63;;;;;;;;;;5392706;26;81583;-56
2024/04/16 00:07:53;;;;;;;1.50;0.60;;;;;;;;;;5385001;26;80310;-57
2024/04/16 00:10:18;;;;;;;1.42;0.57;;;;;;;;;;5388235;26;80228;-54
2024/04/16 00:12:43;;;;;;;8.73;0.70;;;;;;;;;;5385832;26;81457;-54
2024/04/16 00:15:09;;;;;;;0.50;0.50;;;;;;;;;;5385867;26;81702;-57
2024/04/16 00:17:34;;;;;;;0.87;0.20;;;;;;;;;;5387945;26;80227;-55
2024/04/16 00:20:00;;;;;;;4.90;0.70;;;;;;;;;;5384154;25;82360;-54
2024/04/16 00:22:25;;;;;;;1.03;0.67;;;;;;;;;;5387015;26;80887;-53
2024/04/16 00:24:50;;;;;;;1.30;0.60;;;;;;;;;;5393934;25;81689;-57
2024/04/16 00:27:15;;;;;;;0.90;0.40;;;;;;;;;;5384926;26;80233;-58
2024/04/16 00:29:42;;;;;;;0.90;0.37;;;;;;;;;;5385628;26;80060;-54
2024/04/16 00:32:07;;;;;;;0.40;0.22;;;;;;;;;;5384046;26;80791;-55
2024/04/16 00:34:33;;;;;;;2.33;0.93;;;;;;;;;;5382637;26;80329;-54
2024/04/16 00:36:58;;;;;;;1.60;0.50;;;;;;;;;;5386391;26;81147;-56
2024/04/16 00:39:23;;;;;;;0.37;0.27;;;;;;;;;;5385320;26;81617;-53
2024/04/16 00:41:48;;;;;;;1.13;0.50;;;;;;;;;;5382168;26;81001;-54
2024/04/16 00:44:14;;;;;;;1.20;0.53;;;;;;;;;;5382959;26;80259;-54
2024/04/16 00:46:39;;;;;;;1.13;0.73;;;;;;;;;;5390426;26;80053;-54
2024/04/16 00:49:04;;;;;;;5.37;0.60;;;;;;;;;;5387684;26;80102;-56
2024/04/16 00:51:30;;;;;;;1.10;0.83;;;;;;;;;;5387301;26;80141;-55
2024/04/16 00:53:55;;;;;;;1.87;0.30;;;;;;;;;;5392042;26;81788;-57
2024/04/16 00:56:20;;;;;;;4.27;0.80;;;;;;;;;;5396013;26;80941;-55
2024/04/16 00:58:46;;;;;;;1.07;0.37;;;;;;;;;;5393146;26;80284;-57
2024/04/16 01:01:11;;;;;;;1.90;0.50;;;;;;;;;;5389251;25;81729;-57
2024/04/16 01:03:36;;;;;;;0.77;0.60;;;;;;;;;;5385760;26;80295;-57
2024/04/16 01:06:02;;;;;;;0.60;0.43;;;;;;;;;;5385423;25;81172;-57
2024/04/16 01:08:27;;;;;;;0.87;0.40;;;;;;;;;;5382588;26;80894;-58
2024/04/16 01:10:53;;;;;;;4.23;0.77;;;;;;;;;;5389838;26;80125;-55
2024/04/16 01:13:18;;;;;;;0.97;0.47;;;;;;;;;;5378916;26;80201;-52
2024/04/16 01:15:43;;;;;;;0.77;0.37;;;;;;;;;;5395086;25;79918;-55
2024/04/16 01:18:08;;;;;;;1.60;0.40;;;;;;;;;;5387489;26;80256;-57
2024/04/16 01:20:34;;;;;;;1.07;0.73;;;;;;;;;;5390958;26;80082;-51
2024/04/16 01:22:59;;;;;;;1.50;0.50;;;;;;;;;;5388960;25;80825;-55
2024/04/16 01:25:24;;;;;;;2.60;0.30;;;;;;;;;;5388840;26;81333;-55
2024/04/16 01:27:49;;;;;;;0.43;0.40;;;;;;;;;;5391744;26;84377;-58
2024/04/16 01:30:15;;;;;;;0.70;0.40;;;;;;;;;;5387784;26;80395;-54
2024/04/16 01:32:40;;;;;;;1.10;0.37;;;;;;;;;;5389901;26;80274;-54
2024/04/16 01:35:05;;;;;;;2.30;0.60;;;;;;;;;;5387903;25;81488;-51
2024/04/16 01:37:31;;;;;;;0.90;0.25;;;;;;;;;;5387891;26;80086;-53
2024/04/16 01:39:56;;;;;;;2.30;0.30;;;;;;;;;;5382701;26;82770;-54
2024/04/16 01:42:21;;;;;;;0.30;0.30;;;;;;;;;;5381653;26;79641;-53
2024/04/16 01:44:49;;;;;;;1.20;0.50;;;;;;;;;;5391199;26;80241;-58
2024/04/16 01:47:15;;;;;;;0.77;0.20;;;;;;;;;;5387527;26;80231;-53
2024/04/16 01:49:40;;;;;;;0.20;0.20;;;;;;;;;;5388338;26;81175;-56
2024/04/16 01:52:05;;;;;;;2.97;0.80;;;;;;;;;;5388108;26;81479;-57
2024/04/16 01:54:30;;;;;;;0.40;0.40;;;;;;;;;;5391660;26;80569;-57
2024/04/16 01:56:56;;;;;;;0.60;0.50;;;;;;;;;;5392102;26;81791;-54
2024/04/16 01:59:21;;;;;;;1.23;0.77;;;;;;;;;;5382137;26;80689;-52
2024/04/16 02:01:46;;;;;;;0.10;0.10;;;;;;;;;;5394506;26;80877;-55
2024/04/16 02:04:12;;;;;;;1.30;0.50;;;;;;;;;;5381603;26;80592;-54
2024/04/16 02:06:37;;;;;;;0.60;0.40;;;;;;;;;;5392049;26;79599;-55
2024/04/16 02:09:03;;;;;;;0.37;0.37;;;;;;;;;;5387622;26;80185;-60
2024/04/16 02:11:28;;;;;;;0.40;0.30;;;;;;;;;;5386820;26;80316;-55
2024/04/16 02:13:54;;;;;;;3.70;0.30;;;;;;;;;;5391745;26;82156;-53
2024/04/16 02:16:19;;;;;;;1.80;0.50;;;;;;;;;;5388972;26;80092;-56
2024/04/16 02:18:44;;;;;;;1.00;0.37;;;;;;;;;;5391117;26;80874;-57
2024/04/16 02:21:09;;;;;;;1.13;0.40;;;;;;;;;;5386755;26;80859;-54
2024/04/16 02:23:35;;;;;;;1.37;0.30;;;;;;;;;;5391313;26;80722;-54
2024/04/16 02:26:00;;;;;;;0.20;0.20;;;;;;;;;;5392585;25;81258;-54
2024/04/16 02:28:25;;;;;;;0.70;0.30;;;;;;;;;;5379423;26;80743;-55
2024/04/16 02:30:50;;;;;;;3.10;0.63;;;;;;;;;;5387318;26;80016;-54
2024/04/16 02:33:16;;;;;;;1.37;0.47;;;;;;;;;;5404010;25;80357;-57
2024/04/16 02:35:41;;;;;;;0.33;0.33;;;;;;;;;;5389147;26;80220;-57
2024/04/16 02:38:06;;;;;;;1.90;0.40;;;;;;;;;;5385239;26;82895;-52
2024/04/16 02:40:32;;;;;;;0.57;0.40;;;;;;;;;;5384258;26;80277;-55
2024/04/16 02:42:57;;;;;;;2.00;0.70;;;;;;;;;;5382144;26;80268;-54
2024/04/16 02:45:22;;;;;;;1.77;0.37;;;;;;;;;;5393131;26;80792;-55
2024/04/16 02:47:48;;;;;;;0.33;0.23;;;;;;;;;;5400264;26;80229;-55
2024/04/16 02:50:13;;;;;;;2.17;0.70;;;;;;;;;;5383485;26;80740;-56
2024/04/16 02:52:38;;;;;;;0.37;0.27;;;;;;;;;;5389530;26;80530;-57
2024/04/16 02:55:05;;;;;;;1.10;0.40;;;;;;;;;;5393056;25;79497;-54
2024/04/16 02:57:30;;;;;;;1.00;0.60;;;;;;;;;;5391316;25;80487;-56
2024/04/16 02:59:56;;;;;;;1.10;0.10;;;;;;;;;;5380012;26;80349;-54
2024/04/16 03:02:21;;;;;;;2.63;0.67;;;;;;;;;;5380462;26;81293;-56
2024/04/16 03:04:46;;;;;;;0.17;0.17;;;;;;;;;;5389833;26;83603;-59
2024/04/16 03:07:12;;;;;;;2.70;0.43;;;;;;;;;;5385409;26;80975;-57
2024/04/16 03:09:37;;;;;;;0.10;0.10;;;;;;;;;;5385645;26;80716;-58
2024/04/16 03:12:02;;;;;;;2.30;0.40;;;;;;;;;;5384651;26;80509;-53
2024/04/16 03:14:28;;;;;;;1.70;0.60;;;;;;;;;;5390053;26;80985;-55
2024/04/16 03:16:53;;;;;;;0.63;0.60;;;;;;;;;;5382107;26;80819;-57
2024/04/16 03:19:18;;;;;;;0.90;0.40;;;;;;;;;;5387065;26;80036;-54
2024/04/16 03:21:43;;;;;;;0.40;0.20;;;;;;;;;;5387049;26;80793;-53
2024/04/16 03:24:09;;;;;;;0.20;0.13;;;;;;;;;;5382019;25;80954;-53
2024/04/16 03:26:34;;;;;;;0.80;0.47;;;;;;;;;;5389521;26;81801;-55
2024/04/16 03:28:59;;;;;;;0.30;0.20;;;;;;;;;;5391264;25;81399;-58
2024/04/16 03:31:24;;;;;;;0.60;0.20;;;;;;;;;;5386653;25;80697;-53
2024/04/16 03:33:49;;;;;;;0.50;0.20;;;;;;;;;;5389628;26;80222;-55
2024/04/16 03:36:15;;;;;;;0.47;0.37;;;;;;;;;;5393810;25;80057;-56
2024/04/16 03:38:40;;;;;;;4.35;0.60;;;;;;;;;;5382637;26;80850;-56
2024/04/16 03:41:05;;;;;;;0.90;0.30;;;;;;;;;;5386770;26;80576;-54
2024/04/16 03:43:31;;;;;;;0.37;0.10;;;;;;;;;;5389502;26;81592;-53
2024/04/16 03:45:57;;;;;;;0.10;0.10;;;;;;;;;;5379445;26;80988;-54
2024/04/16 03:48:23;;;;;;;1.43;0.50;;;;;;;;;;5385930;26;80199;-52
2024/04/16 03:50:48;;;;;;;0.70;0.20;;;;;;;;;;5389258;26;82157;-57
2024/04/16 03:53:13;;;;;;;0.00;0.00;;;;;;;;;;5388688;26;80333;-56
2024/04/16 03:55:39;;;;;;;0.25;0.25;;;;;;;;;;5384522;26;80724;-57
2024/04/16 03:58:04;;;;;;;0.33;0.30;;;;;;;;;;5388015;26;80295;-55
2024/04/16 04:03:16;;;;;;;0.30;0.30;;;;;;;;;;5380931;26;80181;-54
2024/04/16 04:05:42;;;;;;;0.20;0.20;;;;;;;;;;5386705;26;80366;-57
2024/04/16 04:08:07;;;;;;;0.30;0.20;;;;;;;;;;5384786;25;80094;-57
2024/04/16 04:10:33;;;;;;;0.30;0.30;;;;;;;;;;5385689;26;81948;-53
2024/04/16 04:12:58;;;;;;;1.00;0.20;;;;;;;;;;5393736;25;80396;-49
2024/04/16 04:15:23;;;;;;;1.73;0.17;;;;;;;;;;5377728;26;81443;-56
2024/04/16 04:17:48;;;;;;;0.33;0.23;;;;;;;;;;5381322;26;80305;-53
2024/04/16 04:20:14;;;;;;;0.20;0.10;;;;;;;;;;5375086;26;80175;-56
2024/04/16 04:22:39;;;;;;;0.75;0.25;;;;;;;;;;5391751;26;81088;-51
2024/04/16 04:25:04;;;;;;;1.37;0.33;;;;;;;;;;5380527;26;81528;-54
2024/04/16 04:27:29;;;;;;;2.10;0.20;;;;;;;;;;5384760;26;80952;-53
2024/04/16 04:29:55;;;;;;;1.50;0.20;;;;;;;;;;5390917;26;80848;-53
2024/04/16 04:32:20;;;;;;;0.10;0.10;;;;;;;;;;5388298;25;79745;-53
2024/04/16 04:34:45;;;;;;;0.70;0.17;;;;;;;;;;5444891;25;80133;-55
2024/04/16 04:37:10;;;;;;;0.30;0.10;;;;;;;;;;5394081;25;80618;-53
2024/04/16 04:39:35;;;;;;;0.47;0.23;;;;;;;;;;5391289;26;82616;-55
2024/04/16 04:42:01;;;;;;;0.50;0.20;;;;;;;;;;5385986;26;82758;-57
2024/04/16 04:44:26;;;;;;;0.00;0.00;;;;;;;;;;5389767;26;80858;-55
2024/04/16 04:46:51;;;;;;;0.70;0.30;;;;;;;;;;5395448;26;80353;-52
2024/04/16 04:49:16;;;;;;;0.10;0.10;;;;;;;;;;5393254;26;80087;-59
2024/04/16 04:51:41;;;;;;;1.00;0.40;;;;;;;;;;5387884;26;80460;-57
2024/04/16 04:54:07;;;;;;;0.20;0.10;;;;;;;;;;5396396;26;80963;-50
2024/04/16 04:56:32;;;;;;;0.60;0.20;;;;;;;;;;5391189;26;79358;-53
2024/04/16 04:58:57;;;;;;;0.00;0.00;;;;;;;;;;5395026;26;81165;-57
2024/04/16 05:01:22;;;;;;;0.60;0.20;;;;;;;;;;5387290;26;81850;-55
2024/04/16 05:03:48;;;;;;;0.70;0.20;;;;;;;;;;5394996;26;83346;-57
2024/04/16 05:06:13;;;;;;;3.60;0.20;;;;;;;;;;5394411;26;80314;-58
2024/04/16 05:08:38;;;;;;;1.30;0.30;;;;;;;;;;5390332;26;81036;-55
2024/04/16 05:11:03;;;;;;;0.30;0.30;;;;;;;;;;5380745;26;81141;-57
2024/04/16 05:13:30;;;;;;;1.10;0.80;;;;;;;;;;5390310;26;81451;-55
2024/04/16 05:15:56;;;;;;;0.45;0.28;;;;;;;;;;5395515;26;81284;-55
2024/04/16 05:18:21;;;;;;;0.90;0.40;;;;;;;;;;5388928;26;80173;-56
2024/04/16 05:20:47;;;;;;;0.60;0.40;;;;;;;;;;5391184;26;79676;-55
2024/04/16 05:23:12;;;;;;;2.10;0.20;;;;;;;;;;5390527;26;80782;-58
2024/04/16 05:25:37;;;;;;;0.50;0.50;;;;;;;;;;5388961;26;80400;-55
2024/04/16 05:28:03;;;;;;;1.40;0.13;;;;;;;;;;5395920;25;81010;-53
2024/04/16 05:30:28;;;;;;;2.10;0.70;;;;;;;;;;5400522;25;80526;-56
2024/04/16 05:32:53;;;;;;;0.47;0.23;;;;;;;;;;5389534;26;80409;-54
2024/04/16 05:35:18;;;;;;;0.67;0.40;;;;;;;;;;5390048;25;81142;-52
2024/04/16 05:37:44;;;;;;;2.47;1.00;;;;;;;;;;5395388;26;80069;-54
2024/04/16 05:40:10;;;;;;;2.10;0.32;;;;;;;;;;5392873;26;80835;-53
2024/04/16 05:42:35;;;;;;;0.50;0.40;;;;;;;;;;5382464;26;80873;-52
2024/04/16 05:45:01;;;;;;;1.43;0.47;;;;;;;;;;5391795;26;80340;-53
2024/04/16 05:47:26;;;;;;;5.67;0.77;;;;;;;;;;5390875;26;80470;-54
2024/04/16 05:49:51;;;;;;;0.47;0.30;;;;;;;;;;5390330;26;80698;-55
2024/04/16 05:52:16;;;;;;;3.57;0.43;;;;;;;;;;5389197;26;81224;-54
2024/04/16 05:54:41;;;;;;;2.10;0.60;;;;;;;;;;5392254;26;80254;-51
2024/04/16 05:57:07;;;;;;;3.20;0.50;;;;;;;;;;5395042;26;81459;-51
2024/04/16 05:59:32;;;;;;;2.80;0.40;;;;;;;;;;5392510;26;80153;-52
2024/04/16 06:01:57;;;;;;;2.07;0.70;;;;;;;;;;5387557;26;80138;-53
2024/04/16 06:04:22;;;;;;;0.50;0.40;;;;;;;;;;5387721;26;81712;-50
2024/04/16 06:06:48;;;;;;;0.30;0.20;;;;;;;;;;5389199;26;80748;-57
2024/04/16 06:09:13;;;;;;;2.10;0.40;;;;;;;;;;5391745;26;80067;-55
2024/04/16 06:11:38;;;;;;;0.50;0.30;;;;;;;;;;5391989;26;80400;-53
2024/04/16 06:14:03;;;;;;;1.50;0.80;;;;;;;;;;5384995;25;80813;-54
2024/04/16 06:16:29;;;;;;;4.40;1.10;;;;;;;;;;5390173;26;82227;-54
2024/04/16 06:18:54;;;;;;;0.60;0.30;;;;;;;;;;5392749;25;80117;-52
2024/04/16 06:21:19;;;;;;;2.08;0.90;;;;;;;;;;5393733;26;80672;-55
2024/04/16 06:23:46;;;;;;;2.67;0.30;;;;;;;;;;5393104;25;80376;-57
2024/04/16 06:26:12;;;;;;;1.60;0.50;;;;;;;;;;5392190;26;80335;-54
2024/04/16 06:28:37;;;;;;;0.50;0.50;;;;;;;;;;5390802;26;81139;-52
2024/04/16 06:31:02;;;;;;;0.57;0.30;;;;;;;;;;5394686;26;80343;-52
2024/04/16 06:33:28;;;;;;;0.70;0.53;;;;;;;;;;5389831;26;80538;-51
2024/04/16 06:35:54;;;;;;;1.00;0.20;;;;;;;;;;5389772;26;80854;-54
2024/04/16 06:38:19;;;;;;;1.50;0.47;;;;;;;;;;5391021;26;81438;-52
2024/04/16 06:40:44;;;;;;;0.80;0.60;;;;;;;;;;5403628;26;81056;-53
2024/04/16 06:43:09;;;;;;;0.40;0.40;;;;;;;;;;5392899;25;80329;-55
2024/04/16 06:45:35;;;;;;;1.00;0.30;;;;;;;;;;5394197;26;80403;-53
2024/04/16 06:48:01;;;;;;;3.10;0.30;;;;;;;;;;5441417;25;80767;-49
2024/04/16 06:50:26;;;;;;;0.90;0.40;;;;;;;;;;5389382;26;81942;-51
2024/04/16 06:52:54;;;;;;;0.40;0.40;;;;;;;;;;5404420;26;80277;-53
2024/04/16 06:55:19;;;;;;;5.13;0.40;;;;;;;;;;5387033;26;80402;-50
2024/04/16 06:57:45;;;;;;;0.83;0.50;;;;;;;;;;5397672;26;79636;-52
2024/04/16 07:00:11;;;;;;;1.40;0.50;;;;;;;;;;5362631;26;80789;-53
2024/04/16 07:02:36;;;;;;;0.93;0.47;;;;;;;;;;5395510;26;80121;-56
2024/04/16 07:05:02;;;;;;;2.17;0.33;;;;;;;;;;5394012;25;81803;-51
2024/04/16 07:07:27;;;;;;;0.68;0.47;;;;;;;;;;5398509;26;80685;-53
2024/04/16 07:09:52;;;;;;;2.37;0.53;;;;;;;;;;5395396;25;80081;-53
2024/04/16 07:12:18;;;;;;;3.00;0.73;;;;;;;;;;5397532;26;82829;-54
2024/04/16 07:14:43;;;;;;;0.83;0.70;;;;;;;;;;5397311;26;81352;-56
2024/04/16 07:17:08;;;;;;;3.23;0.53;;;;;;;;;;5398411;26;80761;-52
2024/04/16 07:19:33;;;;;;;1.97;0.90;;;;;;;;;;5392945;26;80125;-54
2024/04/16 07:21:59;;;;;;;1.83;0.93;;;;;;;;;;5390295;26;80291;-50
2024/04/16 07:24:24;;;;;;;1.20;0.63;;;;;;;;;;5393592;26;80593;-56
2024/04/16 07:26:49;;;;;;;1.07;0.57;;;;;;;;;;5391393;26;81124;-55
2024/04/16 07:29:14;;;;;;;1.37;0.93;;;;;;;;;;5388550;26;81537;-53
2024/04/16 07:31:40;;;;;;;0.70;0.60;;;;;;;;;;5389602;25;81838;-52
2024/04/16 07:34:05;;;;;;;0.90;0.57;;;;;;;;;;5391782;26;80227;-53
2024/04/16 07:36:32;;;;;;;3.00;0.60;;;;;;;;;;5391167;26;80599;-55
2024/04/16 07:38:58;;;;;;;0.93;0.60;;;;;;;;;;5380029;25;81684;-54
2024/04/16 07:41:23;;;;;;;1.70;0.90;;;;;;;;;;5391915;26;81499;-51
2024/04/16 07:43:48;;;;;;;1.60;0.80;;;;;;;;;;5388821;26;80485;-54
2024/04/16 07:46:13;;;;;;;0.80;0.70;;;;;;;;;;5387207;26;79891;-51
2024/04/16 07:48:39;;;;;;;1.30;0.90;;;;;;;;;;5391814;26;80612;-52
2024/04/16 07:51:04;;;;;;;1.00;0.70;;;;;;;;;;5392410;25;80668;-53
2024/04/16 07:53:31;;;;;;;1.55;0.45;;;;;;;;;;5386074;26;81617;-53
2024/04/16 07:55:56;;;;;;;4.93;0.80;;;;;;;;;;5390134;25;80452;-56
2024/04/16 07:58:21;;;;;;;1.80;0.73;;;;;;;;;;5390552;26;81685;-54
2024/04/16 08:00:47;;;;;;;0.63;0.60;;;;;;;;;;5388374;26;80362;-52
2024/04/16 08:03:12;;;;;;;1.60;0.80;;;;;;;;;;5387095;25;80150;-54
2024/04/16 08:05:37;;;;;;;0.50;0.50;;;;;;;;;;5383192;26;80967;-55
2024/04/16 08:08:02;;;;;;;1.53;0.60;;;;;;;;;;5395057;26;81327;-52
2024/04/16 08:10:28;;;;;;;1.98;0.57;;;;;;;;;;5389496;26;80212;-52
2024/04/16 08:12:53;;;;;;;2.63;0.60;;;;;;;;;;5392732;26;79893;-53
2024/04/16 08:15:18;;;;;;;0.80;0.70;;;;;;;;;;5385635;26;80342;-52
2024/04/16 08:17:43;;;;;;;1.83;0.60;;;;;;;;;;5390747;25;82530;-53
2024/04/16 08:20:09;;;;;;;0.33;0.33;;;;;;;;;;5389792;26;80682;-52
2024/04/16 08:22:34;;;;;;;2.30;0.90;;;;;;;;;;5388042;26;80379;-51
2024/04/16 08:24:59;;;;;;;1.27;0.83;;;;;;;;;;5387075;26;81346;-53
2024/04/16 08:27:25;;;;;;;0.80;0.60;;;;;;;;;;5392546;25;80314;-52
2024/04/16 08:29:51;;;;;;;0.57;0.50;;;;;;;;;;5399459;26;80305;-54
2024/04/16 08:32:17;;;;;;;1.08;0.47;;;;;;;;;;5390917;26;80155;-51
2024/04/16 08:34:42;;;;;;;1.50;0.80;;;;;;;;;;5400964;26;80163;-53
2024/04/16 08:37:07;;;;;;;0.60;0.50;;;;;;;;;;5387262;26;80271;-51
2024/04/16 08:39:33;;;;;;;1.90;1.03;;;;;;;;;;5388523;26;80892;-54
2024/04/16 08:41:59;;;;;;;2.00;0.80;;;;;;;;;;5398814;26;83244;-50
2024/04/16 08:44:25;;;;;;;0.65;0.40;;;;;;;;;;5388535;26;82314;-53
2024/04/16 08:46:50;;;;;;;0.90;0.60;;;;;;;;;;5394130;25;80835;-55
2024/04/16 08:49:15;;;;;;;0.70;0.47;;;;;;;;;;5388314;26;80119;-52
2024/04/16 08:51:41;;;;;;;0.57;0.50;;;;;;;;;;5385587;26;80958;-51
2024/04/16 08:54:08;;;;;;;0.90;0.63;;;;;;;;;;5388836;26;80243;-54
2024/04/16 08:56:35;;;;;;;0.83;0.33;;;;;;;;;;5389209;26;80815;-51
2024/04/16 08:59:01;;;;;;;2.70;0.80;;;;;;;;;;5385978;26;81284;-53
2024/04/16 09:01:27;;;;;;;0.65;0.45;;;;;;;;;;5389596;26;80704;-54
2024/04/16 09:03:53;;;;;;;0.80;0.60;;;;;;;;;;5386702;26;81339;-55
2024/04/16 09:06:18;;;;;;;3.15;0.70;;;;;;;;;;5375508;26;82368;-54
2024/04/16 09:08:44;;;;;;;0.60;0.50;;;;;;;;;;5387614;25;82439;-50
2024/04/16 09:11:09;;;;;;;1.13;0.73;;;;;;;;;;5441036;25;81343;-58
2024/04/16 09:13:43;;;;;;;0.40;0.30;;;;;;;;;;5387739;26;81318;-58
2024/04/16 09:16:08;;;;;;;0.40;0.38;;;;;;;;;;5384617;26;81887;-58
2024/04/16 09:18:33;;;;;;;0.80;0.50;;;;;;;;;;5388584;26;80505;-55
2024/04/16 09:20:59;;;;;;;0.40;0.30;;;;;;;;;;5387257;26;80510;-58
2024/04/16 09:23:24;;;;;;;0.90;0.57;;;;;;;;;;5392311;26;80944;-55
2024/04/16 09:25:49;;;;;;;1.10;0.60;;;;;;;;;;5385934;26;80679;-60
2024/04/16 09:28:17;;;;;;;1.40;0.50;;;;;;;;;;5387579;26;80685;-54
2024/04/16 09:30:52;;;;;;;0.95;0.40;;;;;;;;;;5387630;26;81072;-57
2024/04/16 09:33:19;;;;;;;0.25;0.25;;;;;;;;;;5388996;26;80875;-57
2024/04/16 09:35:44;;;;;;;0.70;0.43;;;;;;;;;;5390263;26;80758;-54
2024/04/16 09:38:09;;;;;;;1.23;0.30;;;;;;;;;;5384862;25;80308;-58
2024/04/16 09:40:36;;;;;;;4.60;0.40;;;;;;;;;;5377253;25;80708;-54
2024/04/16 09:43:03;;;;;;;1.55;0.55;;;;;;;;;;5380828;26;80850;-55
2024/04/16 09:45:28;;;;;;;1.50;0.47;;;;;;;;;;5384002;26;82035;-54
2024/04/16 09:47:59;;;;;;;1.00;0.25;;;;;;;;;;5394761;26;79939;-57
2024/04/16 09:50:25;;;;;;;0.45;0.45;;;;;;;;;;5385645;26;80252;-53
2024/04/16 09:52:52;;;;;;;1.20;0.30;;;;;;;;;;5387760;26;81449;-57
2024/04/16 09:55:23;;;;;;;2.40;0.50;;;;;;;;;;5386293;26;81289;-56
2024/04/16 09:57:49;;;;;;;0.65;0.50;;;;;;;;;;5383664;26;80812;-58
2024/04/16 10:00:15;;;;;;;3.70;0.50;;;;;;;;;;5377887;26;81102;-58
2024/04/16 10:02:44;;;;;;;0.80;0.43;;;;;;;;;;5386047;25;80583;-56
2024/04/16 10:05:10;;;;;;;1.13;0.40;;;;;;;;;;5386074;26;81296;-57
2024/04/16 10:07:35;;;;;;;1.57;0.57;;;;;;;;;;5384910;26;81102;-56
2024/04/16 10:10:00;;;;;;;0.20;0.20;;;;;;;;;;5392078;25;80651;-56
2024/04/16 10:12:26;;;;;;;0.40;0.27;;;;;;;;;;5448382;25;80656;-56
2024/04/16 10:14:51;;;;;;;0.50;0.27;;;;;;;;;;5392378;26;80388;-58
2024/04/16 10:17:16;;;;;;;3.42;0.77;;;;;;;;;;5390840;26;80157;-57
2024/04/16 10:19:42;;;;;;;1.43;0.50;;;;;;;;;;5388960;26;81226;-55
2024/04/16 10:22:11;;;;;;;0.75;0.32;;;;;;;;;;5385706;25;81930;-55
2024/04/16 10:24:36;;;;;;;1.77;0.57;;;;;;;;;;5385086;26;80348;-56
2024/04/16 10:27:01;;;;;;;2.10;0.77;;;;;;;;;;5383696;26;80638;-58
2024/04/16 10:29:27;;;;;;;1.00;0.50;;;;;;;;;;5386575;26;80997;-56
2024/04/16 10:31:53;;;;;;;6.10;0.60;;;;;;;;;;5386217;26;81667;-56
2024/04/16 10:34:26;;;;;;;4.13;1.10;;;;;;;;;;5445299;25;80027;-58
2024/04/16 10:36:52;;;;;;;4.13;1.00;;;;;;;;;;5390413;26;79394;-55
2024/04/16 10:39:17;;;;;;;2.88;1.02;;;;;;;;;;5387572;26;80288;-57
2024/04/16 10:41:52;;;;;;;1.57;0.90;;;;;;;;;;5389624;25;80706;-55
2024/04/16 10:44:18;;;;;;;3.97;1.10;;;;;;;;;;5378582;26;81625;-56
2024/04/16 10:46:44;;;;;;;6.17;0.90;;;;;;;;;;5387768;26;80839;-55
2024/04/16 10:49:11;;;;;;;3.10;1.27;;;;;;;;;;5388234;26;81556;-58
2024/04/16 10:51:37;;;;;;;2.92;1.25;;;;;;;;;;5386656;26;81364;-58
2024/04/16 10:54:08;;;;;;;2.97;1.30;;;;;;;;;;5386762;26;80088;-58
2024/04/16 10:56:37;;;;;;;6.00;1.63;;;;;;;;;;5383160;26;80138;-56
2024/04/16 10:59:06;;;;;;;3.80;1.70;;;;;;;;;;5386905;26;81118;-57
2024/04/16 11:01:31;;;;;;;5.10;1.80;;;;;;;;;;5386663;26;80842;-58
2024/04/16 11:04:04;;;;;;;2.97;1.50;;;;;;;;;;5392110;26;81402;-58
2024/04/16 11:06:29;;;;;;;4.88;1.70;;;;;;;;;;5391744;25;80188;-55
2024/04/16 11:08:55;;;;;;;7.57;2.37;;;;;;;;;;5379766;26;81597;-56
2024/04/16 11:11:20;;;;;;;5.67;2.40;;;;;;;;;;5389646;26;80704;-55
2024/04/16 11:13:45;;;;;;;8.30;3.57;;;;;;;;;;5380666;26;80562;-56
2024/04/16 11:16:11;;;;;;;25.87;10.43;;;;;;;;;;5383554;26;81124;-58
2024/04/16 11:18:36;;;;;;;18.87;10.23;;;;;;;;;;5383969;26;82049;-56
2024/04/16 11:21:01;;;;;;;25.90;10.83;;;;;;;;;;5388526;26;81011;-56
2024/04/16 11:23:26;;;;;;;20.30;10.40;;;;;;;;;;5379699;26;81369;-57
2024/04/16 11:25:52;;;;;;;18.77;9.97;;;;;;;;;;5377605;26;82405;-57
2024/04/16 11:28:17;;;;;;;20.23;9.98;;;;;;;;;;5384563;25;82736;-54
2024/04/16 11:30:53;;;;;;;24.30;9.97;;;;;;;;;;5391052;26;81529;-54
2024/04/16 11:33:18;;;;;;;16.40;8.30;;;;;;;;;;5389495;26;81346;-54
2024/04/16 11:35:43;;;;;;;15.97;6.90;;;;;;;;;;5396262;25;80688;-58
2024/04/16 11:38:09;;;;;;;11.93;4.93;;;;;;;;;;5387983;26;79995;-55
2024/04/16 11:40:37;;;;;;;5.90;3.60;;;;;;;;;;5388309;26;80148;-57
2024/04/16 11:43:03;;;;;;;5.63;2.97;;;;;;;;;;5389636;25;80908;-57
2024/04/16 11:45:29;;;;;;;5.10;2.23;;;;;;;;;;5385804;26;80526;-56
2024/04/16 11:47:54;;;;;;;2.63;1.73;;;;;;;;;;5387047;26;81480;-56
2024/04/16 11:50:19;;;;;;;4.50;1.60;;;;;;;;;;5387411;26;80128;-55
2024/04/16 11:52:44;;;;;;;6.80;2.40;;;;;;;;;;5389147;26;80491;-56
2024/04/16 11:55:10;;;;;;;3.17;1.63;;;;;;;;;;5386460;26;81673;-57
2024/04/16 11:57:35;;;;;;;4.43;2.10;;;;;;;;;;5380604;26;82189;-55
2024/04/16 12:00:00;;;;;;;3.73;1.90;;;;;;;;;;5386228;25;81938;-59
2024/04/16 12:02:25;;;;;;;3.47;2.13;;;;;;;;;;5383410;26;80491;-55
2024/04/16 12:04:51;;;;;;;7.77;2.17;;;;;;;;;;5391025;26;81397;-60
2024/04/16 12:07:16;;;;;;;6.57;2.90;;;;;;;;;;5387187;26;81354;-60
2024/04/16 12:09:41;;;;;;;2.70;2.00;;;;;;;;;;5375093;26;80771;-60
2024/04/16 12:12:06;;;;;;;3.00;1.90;;;;;;;;;;5388730;25;80211;-58
2024/04/16 12:14:32;;;;;;;1.87;1.43;;;;;;;;;;5393043;26;80869;-57
2024/04/16 12:16:57;;;;;;;4.37;1.63;;;;;;;;;;5386076;25;80694;-56
2024/04/16 12:19:22;;;;;;;1.27;0.80;;;;;;;;;;5375737;26;80480;-55
2024/04/16 12:21:47;;;;;;;1.30;0.87;;;;;;;;;;5376471;25;81558;-59
2024/04/16 12:24:13;;;;;;;0.90;0.60;;;;;;;;;;5385763;26;81207;-57
2024/04/16 12:26:38;;;;;;;2.45;0.85;;;;;;;;;;5396395;26;80845;-53
2024/04/16 12:29:05;;;;;;;2.63;0.75;;;;;;;;;;5396568;25;80252;-54
2024/04/16 12:31:30;;;;;;;0.60;0.37;;;;;;;;;;5388289;25;80291;-54
2024/04/16 12:34:00;;;;;;;2.10;0.80;;;;;;;;;;5390327;26;80632;-55
2024/04/16 12:36:25;;;;;;;1.03;0.73;;;;;;;;;;5387015;26;80872;-54
2024/04/16 12:38:50;;;;;;;1.10;0.70;;;;;;;;;;5393571;26;80905;-55
2024/04/16 12:41:15;;;;;;;0.70;0.50;;;;;;;;;;5386207;26;81206;-53
2024/04/16 12:43:41;;;;;;;2.70;0.95;;;;;;;;;;5394614;25;80830;-50
2024/04/16 12:46:06;;;;;;;5.27;0.80;;;;;;;;;;5400073;25;80956;-51
2024/04/16 12:48:32;;;;;;;0.90;0.63;;;;;;;;;;5394534;26;81804;-58
2024/04/16 12:50:57;;;;;;;6.70;1.00;;;;;;;;;;5383567;26;82456;-52
2024/04/16 12:53:23;;;;;;;2.93;0.83;;;;;;;;;;5392333;26;80553;-54
2024/04/16 12:55:49;;;;;;;2.50;1.20;;;;;;;;;;5387625;25;80311;-53
2024/04/16 12:58:14;;;;;;;0.50;0.40;;;;;;;;;;5391961;26;80342;-54
2024/04/16 13:00:40;;;;;;;0.53;0.53;;;;;;;;;;5393182;26;80837;-56
2024/04/16 13:03:07;;;;;;;4.97;0.43;;;;;;;;;;5393066;25;79981;-54
2024/04/16 13:05:32;;;;;;;2.15;0.77;;;;;;;;;;5391004;26;81429;-55
2024/04/16 13:07:58;;;;;;;0.90;0.63;;;;;;;;;;5390762;26;80567;-56
2024/04/16 13:10:23;;;;;;;2.37;0.70;;;;;;;;;;5394477;25;82483;-56
2024/04/16 13:12:48;;;;;;;1.00;0.70;;;;;;;;;;5395317;25;81663;-57
2024/04/16 13:15:14;;;;;;;2.28;0.45;;;;;;;;;;5393320;26;80526;-54
2024/04/16 13:17:39;;;;;;;2.60;0.40;;;;;;;;;;5392356;26;82339;-57
2024/04/16 13:20:04;;;;;;;0.10;0.10;;;;;;;;;;5396116;25;80237;-53
2024/04/16 13:22:30;;;;;;;0.60;0.10;;;;;;;;;;5386497;26;80216;-67
2024/04/16 13:24:55;;;;;;;0.10;0.10;;;;;;;;;;5447651;25;80928;-52
2024/04/16 13:27:20;;;;;;;0.03;0.03;;;;;;;;;;5397118;26;79531;-51
2024/04/16 13:29:45;;;;;;;2.37;0.17;;;;;;;;;;5392365;26;81602;-50
2024/04/16 13:32:11;;;;;;;0.60;0.10;;;;;;;;;;5392538;26;80147;-53
2024/04/16 13:34:36;;;;;;;1.20;0.20;;;;;;;;;;5391928;26;81375;-52
2024/04/16 13:37:01;;;;;;;0.90;0.40;;;;;;;;;;5387578;26;80449;-53
2024/04/16 13:39:27;;;;;;;0.13;0.13;;;;;;;;;;5394487;26;80169;-52
2024/04/16 13:41:52;;;;;;;2.80;0.30;;;;;;;;;;5386249;26;81314;-52
2024/04/16 13:44:17;;;;;;;0.90;0.17;;;;;;;;;;5389154;26;80230;-53
2024/04/16 13:46:44;;;;;;;2.63;0.20;;;;;;;;;;5392202;25;81482;-49
2024/04/16 13:49:09;;;;;;;0.77;0.47;;;;;;;;;;5389959;26;80175;-56
2024/04/16 13:51:35;;;;;;;0.70;0.30;;;;;;;;;;5388364;26;80392;-53
2024/04/16 13:54:00;;;;;;;0.30;0.20;;;;;;;;;;5389269;25;80711;-52
2024/04/16 13:56:25;;;;;;;0.20;0.20;;;;;;;;;;5448010;25;80585;-54
2024/04/16 13:58:51;;;;;;;0.20;0.20;;;;;;;;;;5389774;26;81542;-55
2024/04/16 14:01:16;;;;;;;0.43;0.20;;;;;;;;;;5388762;25;80114;-55
2024/04/16 14:03:41;;;;;;;0.60;0.40;;;;;;;;;;5393876;26;80967;-57
2024/04/16 14:06:06;;;;;;;2.05;0.35;;;;;;;;;;5393416;26;82285;-50
2024/04/16 14:08:31;;;;;;;0.50;0.33;;;;;;;;;;5391881;26;80861;-54
2024/04/16 14:10:57;;;;;;;2.43;0.30;;;;;;;;;;5391206;26;81488;-53
2024/04/16 14:13:22;;;;;;;0.50;0.40;;;;;;;;;;5394260;26;80904;-55
2024/04/16 14:15:47;;;;;;;0.60;0.30;;;;;;;;;;5392939;26;80121;-57
2024/04/16 14:18:12;;;;;;;0.40;0.40;;;;;;;;;;5392253;25;80920;-55
2024/04/16 14:20:38;;;;;;;1.87;0.37;;;;;;;;;;5444536;25;82849;-50
2024/04/16 14:23:03;;;;;;;0.50;0.20;;;;;;;;;;5393244;25;81061;-55
2024/04/16 14:25:28;;;;;;;0.52;0.35;;;;;;;;;;5383313;26;80621;-52
2024/04/16 14:27:54;;;;;;;3.20;0.47;;;;;;;;;;5395271;26;80134;-49
2024/04/16 14:30:19;;;;;;;0.90;0.30;;;;;;;;;;5387641;25;80940;-51
2024/04/16 14:32:44;;;;;;;1.33;0.43;;;;;;;;;;5391612;26;80312;-51
2024/04/16 14:35:09;;;;;;;2.90;0.50;;;;;;;;;;5387624;25;81084;-55